Time;durP1;ratioP1;P1;durP2;ratioP2;P2;SDS_P1;SDS_P2;PMS_P1;PMS_P2;Temp;Humidity;BMP_temperature;BMP_pressure;BME280_temperature;BME280_humidity;BME280_pressure;Samples;Min_cycle;Max_cycle;Signal;HPM_P1;HPM_P2
2021/11/16 00:01:10;;;;;;;;;11.00;10.50;;;;;9.00;70.83;101708.78;5028458;28;45664;-81
2021/11/16 00:03:36;;;;;;;;;12.75;11.00;;;;;8.97;70.54;101701.06;5027305;28;45388;-84
2021/11/16 00:06:02;;;;;;;;;12.75;10.25;;;;;9.02;70.42;101696.47;5031211;28;45703;-81
2021/11/16 00:12:17;;;;;;;;;14.25;9.75;;;;;9.06;70.33;101702.41;5026436;28;45394;-78
2021/11/16 00:14:42;;;;;;;;;10.50;7.75;;;;;8.93;70.01;101689.06;5029551;28;46591;-81
2021/11/16 00:17:08;;;;;;;;;16.25;13.25;;;;;9.00;70.24;101702.69;5011558;28;45635;-79
2021/11/16 00:19:33;;;;;;;;;14.75;12.00;;;;;8.99;70.30;101693.16;5011243;28;45478;-77
2021/11/16 00:21:59;;;;;;;;;14.00;12.50;;;;;8.98;70.39;101699.31;5029547;28;45754;-81
2021/11/16 00:24:39;;;;;;;;;17.75;11.50;;;;;8.62;70.15;101633.94;5027687;28;48310;-81
2021/11/16 00:27:06;;;;;;;;;8.00;6.00;;;;;8.95;70.01;101689.00;5026783;28;46061;-78
2021/11/16 00:29:33;;;;;;;;;8.50;7.00;;;;;8.92;70.10;101686.53;5008996;28;45746;-82
2021/11/16 00:31:58;;;;;;;;;11.00;9.00;;;;;8.86;70.54;101687.66;5010857;28;45608;-81
2021/11/16 00:34:24;;;;;;;;;8.50;7.50;;;;;8.82;70.66;101673.03;5026124;28;46481;-83
2021/11/16 00:36:49;;;;;;;;;10.75;9.25;;;;;8.88;70.68;101680.59;5020431;28;46371;-81
2021/11/16 00:39:15;;;;;;;;;12.25;10.00;;;;;8.82;70.75;101665.22;5002481;28;45629;-83
2021/11/16 00:41:42;;;;;;;;;12.00;9.00;;;;;8.87;70.59;101665.84;5020345;28;45703;-86
2021/11/16 00:44:08;;;;;;;;;14.25;9.75;;;;;8.95;70.79;101668.09;5020301;28;45651;-83
2021/11/16 00:46:35;;;;;;;;;12.00;8.50;;;;;8.91;70.59;101656.09;5021494;28;45698;-85
2021/11/16 00:49:00;;;;;;;;;15.25;11.00;;;;;8.83;70.84;101636.41;5022645;28;45648;-84
2021/11/16 00:51:26;;;;;;;;;15.50;12.75;;;;;8.99;70.90;101656.56;5022029;28;45791;-88
2021/11/16 00:57:13;;;;;;;;;17.25;11.50;;;;;8.95;70.92;101647.19;5023637;28;45802;-86
2021/11/16 00:59:39;;;;;;;;;13.00;11.25;;;;;8.98;71.10;101641.81;5024369;28;45748;-87
2021/11/16 01:02:04;;;;;;;;;12.50;10.75;;;;;8.99;71.11;101648.72;5025137;28;45561;-85
2021/11/16 01:04:30;;;;;;;;;13.50;11.00;;;;;8.95;70.97;101629.75;5025487;28;45442;-83
2021/11/16 01:06:56;;;;;;;;;15.25;11.50;;;;;8.98;71.12;101637.44;5024433;28;47213;-87
2021/11/16 01:09:21;;;;;;;;;14.25;12.25;;;;;8.99;71.16;101640.88;5024696;28;45544;-87
2021/11/16 01:11:47;;;;;;;;;7.50;7.00;;;;;9.02;70.99;101638.97;5025231;28;45641;-86
2021/11/16 01:14:13;;;;;;;;;10.75;9.00;;;;;9.04;71.13;101641.50;5030406;28;45645;-83
2021/11/16 01:16:41;;;;;;;;;16.00;11.50;;;;;8.65;71.04;101579.78;5012565;28;45708;-79
2021/11/16 01:19:07;;;;;;;;;16.25;10.00;;;;;9.02;70.84;101644.19;5030140;28;45781;-81
2021/11/16 01:21:37;;;;;;;;;11.50;10.00;;;;;8.84;70.89;101617.19;5013329;28;45315;-82
2021/11/16 01:27:26;;;;;;;;;12.00;9.50;;;;;8.97;70.47;101630.50;5035352;28;45303;-79
2021/11/16 01:29:53;;;;;;;;;14.00;11.00;;;;;8.97;70.80;101638.34;5035708;28;45439;-79
2021/11/16 01:35:14;;;;;;;;;10.75;6.75;;;;;8.96;70.64;101641.88;5013202;28;47187;-79
2021/11/16 01:37:40;;;;;;;;;11.25;8.00;;;;;8.88;70.78;101641.41;5012213;28;45807;-78
2021/11/16 01:40:11;;;;;;;;;11.25;9.50;;;;;8.94;70.87;101648.09;5012416;28;45301;-80
2021/11/16 01:42:37;;;;;;;;;11.00;8.25;;;;;8.90;71.21;101639.56;4992455;28;45482;-84
2021/11/16 01:45:04;;;;;;;;;13.00;10.00;;;;;8.94;71.12;101643.72;4974194;28;46406;-83
2021/11/16 01:47:30;;;;;;;;;14.25;10.25;;;;;8.98;71.07;101644.41;5007376;28;45418;-83
2021/11/16 01:49:56;;;;;;;;;12.00;10.75;;;;;8.98;70.87;101653.09;5008413;28;45602;-80
2021/11/16 01:52:21;;;;;;;;;7.25;6.25;;;;;8.88;70.98;101643.16;5010363;28;45425;-87
2021/11/16 01:54:47;;;;;;;;;12.50;11.00;;;;;8.83;70.96;101656.44;5013049;28;45668;-78
2021/11/16 01:57:12;;;;;;;;;11.25;9.00;;;;;8.64;71.30;101619.88;5012723;28;45658;-84
2021/11/16 01:59:38;;;;;;;;;15.50;11.00;;;;;8.85;71.47;101649.41;5011976;28;45750;-82
2021/11/16 02:02:05;;;;;;;;;14.00;10.00;;;;;8.85;71.39;101647.59;5012435;28;45633;-79
2021/11/16 02:04:30;;;;;;;;;8.50;6.50;;;;;8.86;71.18;101643.22;5016164;28;48953;-84
2021/11/16 02:06:56;;;;;;;;;10.00;8.00;;;;;8.83;70.96;101630.31;5016144;28;45561;-88
2021/11/16 02:12:43;;;;;;;;;8.50;7.50;;;;;8.83;70.71;101619.88;5025000;28;46276;-90
2021/11/16 02:15:09;;;;;;;;;13.25;10.25;;;;;8.77;70.63;101613.16;5037482;28;45595;-83
2021/11/16 02:17:36;;;;;;;;;15.75;12.00;;;;;8.85;70.68;101637.16;5038986;28;46209;-85
2021/11/16 02:20:05;;;;;;;;;11.50;7.75;;;;;8.74;70.80;101617.72;5039334;28;45561;-83
2021/11/16 02:22:31;;;;;;;;;6.00;5.50;;;;;8.80;70.55;101636.53;5030859;28;45561;-86
2021/11/16 02:24:57;;;;;;;;;13.00;7.50;;;;;8.71;70.55;101623.91;5027639;28;45716;-82
2021/11/16 02:27:22;;;;;;;;;9.50;7.00;;;;;8.77;70.66;101626.22;5026772;28;45886;-79
2021/11/16 02:29:47;;;;;;;;;14.00;8.50;;;;;8.76;70.55;101626.28;5020379;28;45715;-86
2021/11/16 02:32:13;;;;;;;;;16.25;10.75;;;;;8.73;70.82;101629.91;5018790;28;45509;-84
2021/11/16 02:34:38;;;;;;;;;13.75;9.25;;;;;8.57;70.88;101599.34;5019510;28;46224;-86
2021/11/16 02:37:04;;;;;;;;;9.25;8.25;;;;;8.55;70.90;101598.56;5019678;28;47188;-85
2021/11/16 02:42:52;;;;;;;;;10.50;6.00;;;;;8.67;71.08;101621.50;5018863;28;45711;-82
2021/11/16 02:45:19;;;;;;;;;10.00;6.75;;;;;8.65;70.99;101624.19;5019097;28;45648;-80
2021/11/16 02:47:46;;;;;;;;;8.25;6.75;;;;;8.57;70.46;101608.03;5020080;28;45508;-79
2021/11/16 02:50:12;;;;;;;;;8.50;6.75;;;;;8.59;70.75;101614.03;5006345;28;45801;-84
2021/11/16 02:52:38;;;;;;;;;7.25;7.00;;;;;8.55;70.75;101596.81;5023813;28;45513;-84
2021/11/16 02:58:26;;;;;;;;;8.25;7.00;;;;;8.70;70.73;101622.22;5021679;28;45479;-85
2021/11/16 03:00:56;;;;;;;;;12.00;7.00;;;;;8.61;70.95;101603.50;5003338;28;45629;-83
2021/11/16 03:03:21;;;;;;;;;9.50;7.00;;;;;8.72;70.67;101624.75;5021148;28;45796;-89
2021/11/16 03:05:47;;;;;;;;;10.25;8.25;;;;;8.75;70.62;101624.59;5024746;28;45708;-83
2021/11/16 03:08:24;;;;;;;;;7.00;6.75;;;;;8.73;70.67;101621.22;5008912;28;45506;-85
2021/11/16 03:10:54;;;;;;;;;6.75;5.75;;;;;8.68;70.13;101608.38;5025275;28;45556;-83
2021/11/16 03:13:21;;;;;;;;;10.50;5.00;;;;;8.64;70.43;101601.59;5003916;28;45745;-85
2021/11/16 03:15:47;;;;;;;;;11.25;9.00;;;;;8.75;70.61;101616.75;5001125;28;46665;-86
2021/11/16 03:18:13;;;;;;;;;5.75;5.00;;;;;8.74;70.20;101610.72;5000015;28;45663;-84
2021/11/16 03:20:40;;;;;;;;;10.25;6.50;;;;;8.75;70.49;101606.31;5000405;28;45683;-83
2021/11/16 03:23:13;;;;;;;;;8.75;7.00;;;;;8.78;70.29;101608.78;5002760;28;45891;-82
2021/11/16 03:25:51;;;;;;;;;8.25;6.25;;;;;8.74;70.44;101615.09;4998553;28;46600;-79
2021/11/16 03:28:19;;;;;;;;;8.00;7.50;;;;;8.64;70.38;101579.84;4998277;28;46090;-81
2021/11/16 03:30:49;;;;;;;;;10.00;6.25;;;;;8.78;69.97;101599.19;4998561;28;45848;-82
2021/11/16 03:33:16;;;;;;;;;12.00;10.00;;;;;8.65;69.90;101578.94;4999749;28;45596;-82
2021/11/16 03:35:41;;;;;;;;;6.25;6.00;;;;;8.81;69.26;101611.25;5000035;28;46652;-82
2021/11/16 03:38:08;;;;;;;;;7.00;6.25;;;;;8.82;69.38;101611.19;4999418;28;46008;-86
2021/11/16 03:40:36;;;;;;;;;7.00;7.00;;;;;8.83;69.22;101610.28;5000170;28;45831;-84
2021/11/16 03:43:04;;;;;;;;;8.75;6.00;;;;;8.86;69.12;101614.47;4999658;28;45725;-80
2021/11/16 03:45:30;;;;;;;;;10.75;8.25;;;;;8.82;69.10;101605.97;4998547;28;47223;-82
2021/11/16 03:47:57;;;;;;;;;8.00;6.50;;;;;8.85;69.44;101604.97;5002168;28;45569;-83
2021/11/16 03:50:26;;;;;;;;;9.50;7.50;;;;;8.92;68.78;101623.81;5002816;28;45564;-85
2021/11/16 03:52:56;;;;;;;;;5.50;2.50;;;;;8.91;68.62;101615.09;5005897;28;45680;-83
2021/11/16 03:58:45;;;;;;;;;13.25;8.75;;;;;8.83;68.53;101598.97;4999113;28;45660;-83
2021/11/16 04:01:11;;;;;;;;;8.50;7.00;;;;;8.95;68.35;101621.91;4998921;28;45542;-83
2021/11/16 04:03:40;;;;;;;;;11.00;7.50;;;;;8.98;68.32;101615.66;4999119;28;45539;-82
2021/11/16 04:06:07;;;;;;;;;6.00;5.00;;;;;8.99;68.20;101617.38;4998170;28;46439;-85
2021/11/16 04:08:34;;;;;;;;;7.00;6.00;;;;;8.96;68.11;101618.34;4998017;28;46381;-82
2021/11/16 04:11:00;;;;;;;;;8.25;7.75;;;;;8.93;68.00;101612.44;4998144;28;45541;-85
2021/11/16 04:13:25;;;;;;;;;11.00;10.00;;;;;8.86;67.95;101601.41;5014569;28;45590;-85
2021/11/16 04:15:51;;;;;;;;;10.75;7.00;;;;;8.96;68.10;101610.50;5018217;28;45847;-86
2021/11/16 04:18:18;;;;;;;;;10.25;8.50;;;;;8.96;67.98;101613.13;5022323;28;46032;-86
2021/11/16 04:20:46;;;;;;;;;9.25;6.00;;;;;8.98;68.16;101621.75;5024495;28;45522;-86
2021/11/16 04:23:13;;;;;;;;;8.25;6.00;;;;;8.97;68.15;101616.59;5025109;28;45544;-86
2021/11/16 04:29:00;;;;;;;;;10.25;8.50;;;;;8.93;68.68;101621.13;5021962;28;45676;-86
2021/11/16 04:31:28;;;;;;;;;11.25;11.00;;;;;8.92;68.80;101613.34;5020709;28;45693;-81
2021/11/16 04:34:02;;;;;;;;;20.25;11.75;;;;;8.74;69.29;101578.53;5018031;28;45521;-84
2021/11/16 04:36:28;;;;;;;;;14.75;11.50;;;;;8.83;69.26;101593.75;5016928;28;45749;-82
2021/11/16 04:38:53;;;;;;;;;14.00;10.50;;;;;8.87;69.32;101607.50;5016600;28;46453;-84
2021/11/16 04:41:19;;;;;;;;;18.75;14.75;;;;;8.83;69.45;101602.44;5016524;28;45647;-84
2021/11/16 04:43:44;;;;;;;;;13.75;10.75;;;;;8.88;69.69;101615.28;5016854;28;45816;-84
2021/11/16 04:46:13;;;;;;;;;19.25;12.00;;;;;8.80;69.81;101596.47;5016766;28;45656;-83
2021/11/16 04:48:53;;;;;;;;;12.00;11.75;;;;;8.69;69.65;101583.13;5016652;28;45972;-83
2021/11/16 05:02:37;;;;;;;;;16.00;12.50;;;;;8.77;69.87;101599.25;4994698;28;45790;-83
2021/11/16 05:05:08;;;;;;;;;14.75;11.25;;;;;8.88;69.91;101628.34;4994811;28;45945;-83
2021/11/16 05:07:34;;;;;;;;;18.00;11.75;;;;;8.88;69.92;101622.25;4995010;28;46455;-82
2021/11/16 05:10:01;;;;;;;;;17.00;15.00;;;;;8.74;69.96;101599.41;4997233;28;46385;-90
2021/11/16 05:12:40;;;;;;;;;17.50;16.00;;;;;8.89;70.11;101623.97;4999850;28;45708;-86
2021/11/16 05:15:10;;;;;;;;;19.25;14.00;;;;;8.78;70.11;101603.56;4997574;28;45569;-86
2021/11/16 05:17:36;;;;;;;;;14.00;12.25;;;;;8.89;70.05;101614.34;4995682;28;46351;-86
2021/11/16 05:20:05;;;;;;;;;13.25;12.00;;;;;8.79;70.03;101600.03;4978032;28;46052;-83
2021/11/16 05:22:30;;;;;;;;;8.25;6.75;;;;;8.90;70.11;101616.06;4994737;28;45880;-84
2021/11/16 05:24:56;;;;;;;;;17.50;12.00;;;;;8.87;70.33;101615.34;4995233;28;45976;-81
2021/11/16 05:27:21;;;;;;;;;16.00;11.75;;;;;8.76;70.33;101608.84;4995281;28;45613;-85
2021/11/16 05:29:46;;;;;;;;;15.00;10.75;;;;;8.83;69.84;101620.72;4995093;28;45754;-83
2021/11/16 05:32:12;;;;;;;;;11.25;7.25;;;;;8.83;69.42;101630.31;5001484;28;45652;-81
2021/11/16 05:34:47;;;;;;;;;12.75;10.00;;;;;8.54;69.22;101579.44;5017143;28;45748;-84
2021/11/16 05:37:12;;;;;;;;;11.50;10.75;;;;;8.82;69.24;101637.31;5017263;28;46913;-82
2021/11/16 05:43:01;;;;;;;;;14.00;10.00;;;;;8.75;69.82;101614.16;5015782;28;45506;-85
2021/11/16 05:45:27;;;;;;;;;16.25;11.75;;;;;8.75;69.70;101616.75;5017666;28;45673;-81
2021/11/16 05:47:54;;;;;;;;;15.50;10.25;;;;;8.83;69.59;101625.09;5021098;28;46519;-83
2021/11/16 05:50:20;;;;;;;;;15.75;13.00;;;;;8.51;69.72;101582.22;5022225;28;46079;-83
2021/11/16 05:52:45;;;;;;;;;12.50;9.00;;;;;8.63;69.57;101594.69;5022344;28;45947;-79
2021/11/16 05:58:33;;;;;;;;;11.25;7.75;;;;;8.72;69.15;101620.38;5016555;28;45575;-84
2021/11/16 06:00:59;;;;;;;;;10.75;8.50;;;;;8.81;68.95;101626.94;4998238;28;47998;-81
2021/11/16 06:03:25;;;;;;;;;9.00;9.00;;;;;8.82;69.00;101626.00;5016152;28;45405;-83
2021/11/16 06:05:51;;;;;;;;;17.75;13.00;;;;;8.83;68.73;101628.56;4998309;28;45627;-84
2021/11/16 06:08:26;;;;;;;;;14.00;11.00;;;;;8.61;68.75;101598.28;5015853;28;46396;-81
2021/11/16 06:14:13;;;;;;;;;11.50;9.50;;;;;8.86;69.23;101635.38;5006388;28;45612;-83
2021/11/16 06:16:39;;;;;;;;;15.75;10.25;;;;;8.89;69.43;101631.81;5016295;28;45538;-84
2021/11/16 06:19:09;;;;;;;;;15.00;11.00;;;;;8.83;69.71;101618.09;5016176;28;45546;-85
2021/11/16 06:21:35;;;;;;;;;18.75;11.75;;;;;8.78;69.87;101612.25;5015632;28;46194;-85
2021/11/16 06:24:00;;;;;;;;;14.75;13.25;;;;;8.95;69.74;101634.13;5015397;28;45618;-88
2021/11/16 06:29:47;;;;;;;;;16.25;12.25;;;;;8.89;70.20;101627.44;5015218;28;45704;-86
2021/11/16 06:32:14;;;;;;;;;18.75;14.50;;;;;8.89;70.07;101637.88;5015699;28;48332;-85
2021/11/16 06:34:40;;;;;;;;;13.50;12.25;;;;;8.88;70.28;101643.16;4997896;28;45584;-78
2021/11/16 06:37:05;;;;;;;;;14.00;14.00;;;;;8.83;70.08;101643.38;5015415;28;45913;-82
2021/11/16 06:39:31;;;;;;;;;21.00;16.25;;;;;8.82;70.28;101642.53;5014970;28;46281;-81
2021/11/16 06:41:59;;;;;;;;;15.75;12.25;;;;;8.85;70.50;101645.00;5014881;28;45742;-83
2021/11/16 06:44:25;;;;;;;;;22.75;18.75;;;;;8.81;70.85;101640.84;5015357;28;45597;-82
2021/11/16 06:46:53;;;;;;;;;16.75;14.50;;;;;8.89;70.62;101645.72;5015629;28;45622;-82
2021/11/16 06:49:19;;;;;;;;;17.50;14.25;;;;;8.84;70.70;101638.09;4997145;28;47642;-85
2021/11/16 06:51:46;;;;;;;;;19.25;16.00;;;;;8.70;70.70;101616.13;5015134;28;45623;-83
2021/11/16 06:54:25;;;;;;;;;20.00;15.75;;;;;8.85;71.05;101639.75;5014953;28;45834;-84
2021/11/16 07:00:14;;;;;;;;;17.50;14.00;;;;;8.87;70.98;101642.31;5014990;28;45572;-80
2021/11/16 07:02:40;;;;;;;;;17.00;11.75;;;;;8.86;70.91;101643.22;5015407;28;46440;-87
2021/11/16 07:05:11;;;;;;;;;17.25;15.00;;;;;8.89;70.93;101643.09;5016327;28;45748;-85
2021/11/16 07:07:46;;;;;;;;;11.75;9.00;;;;;8.81;70.67;101629.53;4998576;28;45970;-84
2021/11/16 07:10:15;;;;;;;;;15.75;11.75;;;;;8.85;70.71;101646.78;5016631;28;46730;-86
2021/11/16 07:12:43;;;;;;;;;8.00;6.75;;;;;8.76;70.64;101634.13;5019021;28;45624;-85
2021/11/16 07:15:09;;;;;;;;;13.50;12.25;;;;;8.77;70.97;101641.91;5002777;28;45711;-81
2021/11/16 07:17:34;;;;;;;;;14.25;12.25;;;;;8.80;71.03;101644.38;5021252;28;45977;-80
2021/11/16 07:20:01;;;;;;;;;16.00;14.50;;;;;8.63;70.99;101620.81;5002733;28;46566;-82
2021/11/16 07:22:28;;;;;;;;;14.50;11.75;;;;;8.89;71.04;101657.94;5020538;28;46562;-79
2021/11/16 07:25:00;;;;;;;;;16.50;12.25;;;;;8.88;71.40;101656.22;5022488;28;45505;-80
2021/11/16 07:27:37;;;;;;;;;16.50;14.00;;;;;8.87;71.27;101655.38;5021032;28;45632;-80
2021/11/16 07:30:07;;;;;;;;;17.50;14.50;;;;;8.87;71.56;101659.75;5016267;28;46355;-80
2021/11/16 07:32:52;;;;;;;;;21.50;12.50;;;;;8.65;71.95;101615.50;5016856;28;47073;-82
2021/11/16 07:35:25;;;;;;;;;18.50;15.00;;;;;8.83;72.06;101659.06;5015094;28;45524;-82
2021/11/16 07:37:55;;;;;;;;;19.00;15.25;;;;;8.82;71.82;101660.81;5015463;28;45644;-82
2021/11/16 07:40:21;;;;;;;;;21.75;17.00;;;;;8.81;71.89;101663.50;5016146;28;45896;-81
2021/11/16 07:42:52;;;;;;;;;14.50;12.50;;;;;8.81;71.90;101659.13;4997849;28;47903;-81
2021/11/16 07:45:22;;;;;;;;;16.00;15.00;;;;;8.46;71.78;101594.63;5014844;28;45595;-83
2021/11/16 07:47:49;;;;;;;;;15.00;14.50;;;;;8.86;71.30;101658.91;5014560;28;45648;-80
2021/11/16 07:50:35;;;;;;;;;16.50;14.75;;;;;8.82;71.48;101644.31;5014437;28;45731;-85
2021/11/16 07:53:18;;;;;;;;;19.25;16.00;;;;;8.89;71.52;101661.41;5013349;28;46466;-83
2021/11/16 07:56:04;;;;;;;;;16.50;13.25;;;;;8.94;71.26;101653.34;5014661;28;45965;-83
2021/11/16 07:58:35;;;;;;;;;18.75;15.00;;;;;8.85;70.83;101631.09;5014815;28;45512;-81
2021/11/16 08:01:07;;;;;;;;;19.50;15.75;;;;;9.00;70.99;101643.44;5014243;28;45598;-82
2021/11/16 08:03:41;;;;;;;;;19.00;12.75;;;;;9.07;70.92;101644.81;5014475;28;46641;-80
2021/11/16 08:09:05;;;;;;;;;15.00;13.75;;;;;9.15;70.56;101629.63;4995538;28;45926;-81
2021/11/16 08:14:06;;;;;;;;;17.00;10.75;;;;;9.23;70.26;101629.25;4996218;28;45712;-81
2021/11/16 08:16:35;;;;;;;;;15.00;11.25;;;;;9.30;69.74;101637.63;4979591;28;45742;-80
2021/11/16 08:19:07;;;;;;;;;19.00;13.25;;;;;9.36;69.61;101660.88;4996076;28;45656;-84
2021/11/16 08:21:37;;;;;;;;;15.50;11.75;;;;;9.21;69.61;101639.78;4995826;28;46789;-87
2021/11/16 08:24:08;;;;;;;;;14.50;10.75;;;;;9.34;69.52;101652.28;4995866;28;46098;-86
2021/11/16 08:26:37;;;;;;;;;12.00;11.75;;;;;9.31;69.25;101649.78;4995641;28;45560;-82
2021/11/16 08:29:04;;;;;;;;;18.00;11.00;;;;;9.36;69.07;101659.09;4996090;28;45708;-81
2021/11/16 08:31:37;;;;;;;;;15.25;11.50;;;;;9.34;68.95;101660.94;4979188;28;46429;-81
2021/11/16 08:34:04;;;;;;;;;13.25;12.25;;;;;9.33;69.09;101651.41;4995993;28;45866;-86
2021/11/16 08:36:40;;;;;;;;;16.00;11.25;;;;;9.36;69.13;101653.03;4996503;28;45979;-85
2021/11/16 08:39:08;;;;;;;;;15.00;11.75;;;;;9.35;69.00;101643.47;4996218;28;45807;-80
2021/11/16 08:41:34;;;;;;;;;17.00;15.00;;;;;9.36;68.55;101651.25;4997912;28;45571;-82
2021/11/16 08:44:07;;;;;;;;;11.50;11.50;;;;;9.26;68.51;101631.72;5000587;28;46474;-81
2021/11/16 08:46:33;;;;;;;;;15.00;12.00;;;;;9.25;68.44;101633.47;5017618;28;45498;-83
2021/11/16 08:48:58;;;;;;;;;11.25;11.00;;;;;9.31;68.00;101626.25;5023951;28;45556;-81
2021/11/16 08:51:24;;;;;;;;;12.00;10.50;;;;;9.39;67.89;101629.34;5021496;28;46569;-81
2021/11/16 08:53:49;;;;;;;;;15.75;11.50;;;;;9.43;68.25;101628.25;5021960;28;46394;-82
2021/11/16 08:56:18;;;;;;;;;15.75;11.00;;;;;9.49;68.02;101631.44;5022170;28;45557;-82
2021/11/16 08:58:44;;;;;;;;;12.00;12.00;;;;;9.49;68.03;101620.97;5023084;28;45620;-84
2021/11/16 09:01:11;;;;;;;;;12.25;9.50;;;;;9.58;67.76;101623.09;5004702;28;46839;-84
2021/11/16 09:03:43;;;;;;;;;14.75;13.00;;;;;9.69;67.76;101631.25;5023969;28;46363;-80
2021/11/16 09:06:21;;;;;;;;;10.75;10.00;;;;;9.74;67.24;101641.50;5018908;28;45729;-84
2021/11/16 09:09:11;;;;;;;;;10.25;8.25;;;;;9.72;66.91;101640.72;5018582;28;45456;-85
2021/11/16 09:11:38;;;;;;;;;8.50;8.00;;;;;9.48;66.75;101605.34;5017643;28;46785;-86
2021/11/16 09:14:13;;;;;;;;;11.00;10.25;;;;;9.66;66.09;101635.81;5017913;28;46225;-86
2021/11/16 09:16:40;;;;;;;;;7.75;7.75;;;;;9.62;66.41;101626.41;5017983;28;45610;-87
2021/11/16 09:19:08;;;;;;;;;7.75;6.25;;;;;9.45;66.20;101601.09;5016440;28;45619;-83
2021/11/16 09:21:39;;;;;;;;;5.50;4.25;;;;;9.63;65.89;101625.47;5017958;28;45718;-84
2021/11/16 09:24:12;;;;;;;;;10.75;7.00;;;;;9.60;65.78;101623.88;5020250;28;46050;-80
2021/11/16 09:26:56;;;;;;;;;9.50;7.50;;;;;9.59;65.65;101621.34;5018689;28;45638;-85
2021/11/16 09:29:24;;;;;;;;;7.00;6.25;;;;;9.58;65.73;101619.63;5001782;28;45765;-84
2021/11/16 09:31:55;;;;;;;;;9.25;8.25;;;;;9.59;65.67;101603.03;5021522;28;46454;-82
2021/11/16 09:34:40;;;;;;;;;10.75;8.50;;;;;9.61;65.95;101609.84;5019816;28;46219;-83
2021/11/16 09:37:10;;;;;;;;;7.50;7.00;;;;;9.65;65.44;101614.03;5018844;28;45661;-85
2021/11/16 09:39:45;;;;;;;;;7.25;6.75;;;;;9.66;65.88;101610.47;5018050;28;45536;-80
2021/11/16 09:42:14;;;;;;;;;8.75;8.25;;;;;9.59;65.57;101593.41;5017154;28;46297;-80
2021/11/16 09:44:47;;;;;;;;;10.75;8.00;;;;;9.73;65.35;101615.38;5015659;28;46255;-84
2021/11/16 09:47:29;;;;;;;;;7.25;6.25;;;;;9.73;65.42;101604.91;5017414;28;45536;-82
2021/11/16 09:50:01;;;;;;;;;11.00;10.75;;;;;9.64;65.24;101573.09;5018637;28;45676;-85
2021/11/16 09:52:32;;;;;;;;;10.75;9.50;;;;;9.84;65.19;101597.38;5018920;28;45700;-85
2021/11/16 09:55:06;;;;;;;;;16.50;13.25;;;;;9.91;65.04;101610.06;5018763;28;46276;-86
2021/11/16 09:57:34;;;;;;;;;8.75;7.00;;;;;9.95;64.99;101608.13;5018399;28;45819;-84
2021/11/16 10:00:21;;;;;;;;;13.75;10.25;;;;;9.92;65.22;101597.81;5018523;28;45944;-84
2021/11/16 10:03:00;;;;;;;;;11.25;9.75;;;;;10.00;65.11;101606.09;5019845;28;46445;-83
2021/11/16 10:05:27;;;;;;;;;10.25;8.00;;;;;10.05;64.77;101604.09;5019325;28;45643;-86
2021/11/16 10:08:04;;;;;;;;;9.50;7.75;;;;;10.11;64.63;101604.63;5019889;28;45833;-85
2021/11/16 10:10:32;;;;;;;;;9.00;8.00;;;;;10.15;64.53;101601.84;5022613;28;45545;-85
2021/11/16 10:13:01;;;;;;;;;13.50;10.25;;;;;10.04;64.37;101595.38;5022190;28;46606;-86
2021/11/16 10:15:30;;;;;;;;;12.75;9.50;;;;;10.01;64.45;101582.47;5023983;28;46189;-84
2021/11/16 10:17:56;;;;;;;;;12.00;11.00;;;;;10.15;64.50;101617.56;5023787;28;45852;-86
2021/11/16 10:20:26;;;;;;;;;13.00;12.00;;;;;10.15;64.57;101617.56;5024122;28;45592;-86
2021/11/16 10:22:53;;;;;;;;;12.75;8.75;;;;;10.13;64.60;101608.94;5023602;28;46353;-86
2021/11/16 10:25:24;;;;;;;;;11.50;8.50;;;;;9.92;64.70;101580.34;5007574;28;47121;-83
2021/11/16 10:27:53;;;;;;;;;12.50;11.75;;;;;10.13;64.85;101604.53;5024243;28;45794;-86
2021/11/16 10:30:26;;;;;;;;;17.50;13.50;;;;;10.26;64.65;101613.44;5024043;28;45302;-83
2021/11/16 10:33:24;;;;;;;;;13.75;8.25;;;;;10.26;64.12;101609.97;5025470;28;45533;-88
2021/11/16 10:35:52;;;;;;;;;12.00;11.25;;;;;10.24;64.14;101602.22;5025827;28;45956;-84
2021/11/16 10:38:21;;;;;;;;;11.50;9.25;;;;;10.25;64.25;101603.06;5021507;28;45761;-86
2021/11/16 10:40:48;;;;;;;;;14.25;9.50;;;;;10.26;64.28;101613.44;5020835;28;45484;-88
2021/11/16 10:43:13;;;;;;;;;12.50;11.00;;;;;10.13;64.10;101582.75;5020462;28;45648;-85
2021/11/16 10:45:43;;;;;;;;;15.00;13.00;;;;;10.27;64.19;101612.53;5021385;28;46183;-81
2021/11/16 10:48:12;;;;;;;;;13.00;11.00;;;;;10.27;63.95;101609.06;5016825;28;45644;-84
2021/11/16 10:50:44;;;;;;;;;13.25;12.00;;;;;10.23;63.52;101610.16;5020510;28;45644;-87
2021/11/16 10:53:18;;;;;;;;;13.00;9.00;;;;;10.21;64.08;101612.00;5032506;28;45599;-83
2021/11/16 10:55:47;;;;;;;;;15.50;13.75;;;;;10.09;64.03;101593.38;5002029;28;47401;-76
2021/11/16 10:58:38;;;;;;;;;16.25;13.25;;;;;10.22;64.11;101611.09;5014456;28;45769;-76
2021/11/16 11:01:10;;;;;;;;;15.25;12.00;;;;;10.19;64.19;101603.41;4953200;28;45716;-77
2021/11/16 11:03:45;;;;;;;;;16.25;14.00;;;;;10.24;64.25;101601.38;4953587;28;45810;-79
2021/11/16 11:06:19;;;;;;;;;14.25;14.00;;;;;10.23;64.44;101600.53;4953507;28;47558;-78
2021/11/16 11:08:47;;;;;;;;;13.00;12.25;;;;;10.28;64.26;101603.75;4953526;28;45588;-78
2021/11/16 11:14:21;;;;;;;;;18.25;15.75;;;;;10.27;64.76;101591.56;4952431;28;45797;-77
2021/11/16 11:16:50;;;;;;;;;21.50;16.50;;;;;10.22;64.72;101595.38;4953680;28;46032;-78
2021/11/16 11:19:27;;;;;;;;;18.50;17.00;;;;;10.15;65.22;101599.22;4952977;28;45814;-77
2021/11/16 11:22:02;;;;;;;;;17.50;15.50;;;;;10.12;65.11;101589.75;4953627;28;45564;-78
2021/11/16 11:24:38;;;;;;;;;16.00;14.25;;;;;10.02;65.42;101567.63;4952533;28;47477;-78
2021/11/16 11:30:26;;;;;;;;;22.25;18.50;;;;;9.96;65.26;101574.00;4952418;28;45733;-76
2021/11/16 11:32:53;;;;;;;;;18.75;16.00;;;;;9.96;65.33;101571.41;4952662;28;45615;-78
2021/11/16 11:35:25;;;;;;;;;23.50;18.75;;;;;9.98;65.52;101577.41;4952960;28;46990;-79
2021/11/16 11:38:08;;;;;;;;;18.25;17.25;;;;;9.93;65.56;101555.03;4971084;28;46635;-81
2021/11/16 11:40:39;;;;;;;;;18.50;16.25;;;;;9.66;65.49;101516.28;4995707;28;45473;-80
2021/11/16 11:46:59;;;;;;;;;24.00;20.75;;;;;10.01;65.63;101560.69;4997697;28;45705;-78
2021/11/16 11:49:27;;;;;;;;;16.50;15.50;;;;;10.04;65.22;101558.72;4956577;28;45716;-77
2021/11/16 11:51:56;;;;;;;;;17.75;16.50;;;;;10.04;65.43;101550.88;4955482;28;45610;-78
2021/11/16 11:54:22;;;;;;;;;17.25;16.50;;;;;10.08;65.45;101549.81;4955958;28;45736;-78
2021/11/16 11:56:50;;;;;;;;;16.25;13.00;;;;;10.14;65.42;101545.16;4955700;28;45788;-77
2021/11/16 11:59:17;;;;;;;;;17.50;14.75;;;;;10.14;65.09;101540.78;4955419;28;46173;-75
2021/11/16 12:01:43;;;;;;;;;16.75;13.75;;;;;10.26;64.93;101554.97;4955471;28;45812;-76
2021/11/16 12:04:12;;;;;;;;;16.75;14.75;;;;;10.29;64.96;101552.22;4955420;28;45748;-76
2021/11/16 12:06:39;;;;;;;;;17.00;13.75;;;;;10.32;65.07;101552.03;4955640;28;46727;-78
2021/11/16 12:09:05;;;;;;;;;14.00;12.50;;;;;10.33;64.74;101545.88;4955142;28;46101;-78
2021/11/16 12:11:31;;;;;;;;;13.75;12.25;;;;;10.31;64.64;101545.94;4954953;28;45765;-78
2021/11/16 12:17:46;;;;;;;;;12.00;11.25;;;;;10.36;64.62;101545.72;4954494;28;45768;-78
2021/11/16 12:20:40;;;;;;;;;13.25;12.00;;;;;10.38;64.63;101541.22;4941274;28;47248;-77
2021/11/16 12:23:13;;;;;;;;;15.75;11.50;;;;;10.38;64.33;101544.69;4957808;28;45778;-76
2021/11/16 12:25:39;;;;;;;;;14.75;13.25;;;;;10.37;64.61;101536.91;4987164;28;45615;-78
2021/11/16 12:31:31;;;;;;;;;15.50;13.00;;;;;10.28;64.88;101525.19;4995865;28;46112;-77
2021/11/16 12:33:57;;;;;;;;;12.75;12.25;;;;;10.28;64.74;101519.09;4996127;28;45827;-76
2021/11/16 12:36:29;;;;;;;;;18.75;14.50;;;;;10.29;65.03;101519.03;4996469;28;45666;-77
2021/11/16 12:38:55;;;;;;;;;18.75;15.25;;;;;10.25;65.42;101522.75;4995954;28;45607;-75
2021/11/16 12:41:27;;;;;;;;;22.50;18.25;;;;;10.26;65.52;101513.09;4995785;28;47020;-76
2021/11/16 12:47:15;;;;;;;;;16.75;13.75;;;;;10.14;65.54;101511.13;4996182;28;45801;-76
2021/11/16 12:49:46;;;;;;;;;20.75;17.50;;;;;10.12;65.95;101503.34;4996146;28;46687;-78
2021/11/16 12:52:21;;;;;;;;;20.75;17.50;;;;;10.09;65.80;101485.19;4995819;28;46242;-77